This is the latest recevied weather packets stored in our database for station/object DH1FR-13. If no packets are shown the sender has not sent any weather packets the latest 1 day(s).
| Time | Temp. | Humidity | Pressure | Rain* | Wind** | Luminosity | Snow |
|---|---|---|---|---|---|---|---|
| 1778103001 | 8.89° C | 97% | 1011.7 hPa | 5.08 mm | 0 m/s | - | - |
| 1778100601 | 8.89° C | 97% | 1011.4 hPa | 5.08 mm | 0 m/s | - | - |
| 1778099401 | 8.89° C | 97% | 1011.6 hPa | 5.08 mm | 0 m/s | - | - |
| 1778095801 | 9.44° C | 98% | 1010.8 hPa | 5.08 mm | 0 m/s | - | - |
| 1778093401 | 10° C | 98% | 1010.7 hPa | 5.08 mm | 0 m/s | - | - |
| 1778092801 | 10° C | 98% | 1010.5 hPa | 5.08 mm | 0 m/s | - | - |
| 1778092201 | 10° C | 98% | 1010.3 hPa | 5.08 mm | 0 m/s | - | - |
| 1778091001 | 10° C | 98% | 1010 hPa | 5.08 mm | 0 m/s | - | - |
| 1778085001 | 12.22° C | 94% | 1009.1 hPa | 4.32 mm | 0 m/s | - | - |
| 1778084401 | 12.78° C | 92% | 1008.9 hPa | 3.81 mm | 0 m/s | - | - |
| 1778082601 | 15° C | 83% | 1008.6 hPa | 3.56 mm | 0 m/s | - | - |
| 1778082001 | 15° C | 79% | 1008.4 hPa | 3.56 mm | 0 m/s | - | - |
| 1778080201 | 15.56° C | 78% | 1008.4 hPa | 3.56 mm | 0 m/s | - | - |
| 1778079601 | 15.56° C | 77% | 1008.5 hPa | 3.56 mm | 0 m/s | - | - |
| 1778077801 | 16.11° C | 72% | 1008 hPa | 3.56 mm | 0 m/s | - | - |
| 1778076601 | 16.11° C | 73% | 1008.4 hPa | 3.56 mm | 0 m/s | - | - |
| 1778076001 | 16.11° C | 73% | 1008.3 hPa | 3.56 mm | 0 m/s | - | - |
| 1778074801 | 16.67° C | 72% | 1008.3 hPa | 3.56 mm | 0 m/s | - | - |
| 1778069405 | 15.56° C | 77% | 1008.4 hPa | 3.56 mm | 0 m/s | - | - |
| 1778068801 | 16.11° C | 74% | 1008.4 hPa | 3.56 mm | 0 m/s | - | - |
| 1778068201 | 16.11° C | 74% | 1008.5 hPa | 3.56 mm | 0 m/s | - | - |
| 1778067001 | 16.11° C | 75% | 1008.2 hPa | 3.56 mm | 0 m/s | - | - |
| 1778063401 | 16.11° C | 78% | 1008.3 hPa | 3.56 mm | 0 m/s | - | - |
| 1778062201 | 15° C | 85% | 1008.3 hPa | 3.56 mm | 0 m/s | - | - |
| 1778061602 | 15° C | 84% | 1008.4 hPa | 3.56 mm | 0 m/s | - | - |
* Rain latest hour (hover to see other rain measurements)
** Current wind speed in m/s (hover to see current wind gust speed)